Lufkin, TX (75902)

4:58 PM CST on December 26, 2014 (GMT -0600)
RAWS LUFKIN TX US | Change Station
CLOSE
Current Station
Personal Weather Station
Location: Lufkin, TX
Elevation: 154 ft
Nearby Weather Stations

Elev 154 ft 31.31 °N, 94.83 °W | Updated 55 minutes ago

Mostly Cloudy
Mostly Cloudy
61 °F
Feels Like 61 °F
N
1
Wind Variable Wind from SE
Gusts 8.0 mph

Today
High -- | Low -- °F
--% Chance of Precip.
Yesterday
High -- | Low -- °F
Precip. -- in
7:16 AM 5:23 PM
Waxing Crescent, 30% visible
Pressure 29.98 in
Visibility 10.0 miles
Clouds Mostly Cloudy 1400 ft
Overcast 2200 ft
Dew Point 59 °F
Humidity 94%
Rainfall 0.03 in
Snow Depth Not available.
UV 0 out of 12
Pollen 3.50 out of 12
Air Quality Not available.
Flu Activity Not available.
METAR KLFK 262253Z AUTO 11007KT 10SM BKN014 OVC022 18/14 A2998 RMK AO2 SLP151 T01830144

More Conditions Fewer Conditions

Pressure 29.98 in
Visibility 10.0 miles
Clouds Mostly Cloudy 1400 ft
Overcast 2200 ft
Dew Point 59 °F
Humidity 94%
Rainfall 0.03 in
Snow Depth Not available.
UV 0 out of 12
Pollen 3.50 out of 12
Air Quality Not available.
Flu Activity Not available.
METAR KLFK 262253Z AUTO 11007KT 10SM BKN014 OVC022 18/14 A2998 RMK AO2 SLP151 T01830144

More Conditions Fewer Conditions

Nowcast | as of 4:22 PM CST on December 26, 2014

Scattered showers and areas of light rain will continue to move northeast across much of Louisiana and southwest and southern Arkansas and portions of East Texas. Most of this activity will generally be east of a line from Tyler Texas to De Queen Arkansas. Elsewhere...patchy drizzle will also continue develop and move northeast. Through 6 PM...rainfall amounts will range from a trace to a few hundredths of an inch.

×

10-Day Weather Forecast

Almanac

Astronomy

Dec. 26, 2014 Rise Set
Actual Time
Civil Twilight
Nautical Twilight
Astronomical Twilight
Moon
Length of Visible Light
Length of Day
Tomorrow will be .
, % of the Moon is Illuminated

Today's Extremes

State Highs State Lows

Community

WunderPhotos

Upload Photos

1,780,746 photos uploaded!

WunderBlogs® & News

Nearby

Air Quality

  Air Quality AQ Index Pollutant
Not available.

Snow Depth

Station Depth Elevation

Earthquake Activity

City Distance Mag. Time & Date
Minimum magnitude displayed is 2.5.

Coastal Water Temperatures

Place Temperature

Nearby Weather Stations